Time;durP1;ratioP1;P1;durP2;ratioP2;P2;SDS_P1;SDS_P2;PMS_P1;PMS_P2;Temp;Humidity;BMP_temperature;BMP_pressure;BME280_temperature;BME280_humidity;BME280_pressure;Samples;Min_cycle;Max_cycle;Signal;HPM_P1;HPM_P2
2021/10/14 00:01:22;;;;;;;4.97;4.47;;;5.80;96.30;;;;;;5060339;28;20204;-88
2021/10/14 00:03:49;;;;;;;4.90;4.13;;;5.70;96.30;;;;;;5072175;28;20233;-90
2021/10/14 00:06:16;;;;;;;4.50;4.03;;;5.70;96.30;;;;;;5058859;28;20393;-88
2021/10/14 00:08:45;;;;;;;6.20;4.23;;;5.70;96.30;;;;;;5060050;28;20232;-88
2021/10/14 00:11:12;;;;;;;6.10;4.20;;;5.70;96.40;;;;;;5071943;28;20201;-89
2021/10/14 00:13:38;;;;;;;5.60;4.40;;;5.70;96.40;;;;;;5074214;28;20244;-89
2021/10/14 00:16:06;;;;;;;6.07;4.70;;;5.50;96.50;;;;;;5073307;28;20198;-88
2021/10/14 00:18:33;;;;;;;5.83;4.70;;;5.50;96.90;;;;;;5067585;28;20236;-89
2021/10/14 00:21:00;;;;;;;5.90;4.50;;;5.50;96.90;;;;;;5063813;28;20212;-89
2021/10/14 00:23:27;;;;;;;6.23;4.40;;;5.50;96.70;;;;;;5065397;28;20206;-88
2021/10/14 00:25:55;;;;;;;5.87;4.23;;;5.60;96.60;;;;;;5067840;28;20295;-88
2021/10/14 00:28:22;;;;;;;6.43;4.73;;;5.50;96.40;;;;;;5055897;28;20206;-88
2021/10/14 00:30:49;;;;;;;5.93;4.43;;;5.40;96.20;;;;;;5061266;28;20202;-90
2021/10/14 00:33:16;;;;;;;6.23;4.37;;;5.40;96.30;;;;;;5064841;28;20280;-88
2021/10/14 00:35:43;;;;;;;4.63;4.20;;;5.40;96.30;;;;;;5075311;28;20205;-88
2021/10/14 00:38:19;;;;;;;4.57;3.80;;;5.30;96.50;;;;;;5063609;28;20200;-88
2021/10/14 00:40:47;;;;;;;5.07;3.93;;;5.30;96.30;;;;;;5073141;28;20198;-88
2021/10/14 00:43:16;;;;;;;4.50;3.80;;;5.20;96.70;;;;;;5062776;28;20205;-87
2021/10/14 00:45:43;;;;;;;7.43;4.03;;;5.10;96.40;;;;;;5069930;28;20205;-90
2021/10/14 00:48:10;;;;;;;5.30;4.03;;;5.10;96.60;;;;;;5064012;27;20202;-88
2021/10/14 00:50:37;;;;;;;4.67;3.93;;;5.10;96.70;;;;;;5065685;28;20203;-87
2021/10/14 00:53:04;;;;;;;4.50;3.93;;;5.00;96.80;;;;;;5061154;28;20229;-88
2021/10/14 00:55:31;;;;;;;6.27;4.33;;;5.00;97.10;;;;;;5058374;28;20727;-88
2021/10/14 00:57:59;;;;;;;5.10;4.60;;;5.00;97.20;;;;;;5053539;28;20662;-89
2021/10/14 01:00:28;;;;;;;4.90;4.27;;;5.10;97.20;;;;;;5066069;28;20228;-88
2021/10/14 01:02:55;;;;;;;7.00;4.27;;;5.10;97.40;;;;;;5060738;28;20198;-88
2021/10/14 01:05:22;;;;;;;6.23;4.50;;;5.20;97.30;;;;;;5067745;28;20268;-88
2021/10/14 01:07:49;;;;;;;5.17;4.00;;;5.20;97.40;;;;;;5057406;28;20206;-88
2021/10/14 01:10:16;;;;;;;5.77;4.70;;;5.30;97.10;;;;;;5066913;28;20618;-89
2021/10/14 01:12:43;;;;;;;5.80;4.33;;;5.30;96.90;;;;;;5074402;28;20705;-88
2021/10/14 01:15:20;;;;;;;5.63;4.57;;;5.30;97.10;;;;;;5069683;28;20243;-88
2021/10/14 01:17:49;;;;;;;6.70;4.90;;;5.40;96.80;;;;;;5071016;28;20587;-88
2021/10/14 01:20:18;;;;;;;5.33;4.43;;;5.20;96.80;;;;;;5074280;28;20711;-88
2021/10/14 01:22:45;;;;;;;6.40;4.63;;;5.20;97.10;;;;;;5059826;28;20197;-88
2021/10/14 01:25:12;;;;;;;5.90;4.57;;;5.20;97.00;;;;;;5058172;28;20587;-87
2021/10/14 01:27:39;;;;;;;5.40;4.60;;;5.10;97.10;;;;;;5062407;28;20208;-87
2021/10/14 01:30:08;;;;;;;5.67;4.63;;;5.20;97.00;;;;;;5059068;28;20227;-88
2021/10/14 01:32:35;;;;;;;5.47;4.90;;;5.20;96.70;;;;;;5054676;28;20205;-88
2021/10/14 01:35:03;;;;;;;7.60;4.60;;;5.10;96.60;;;;;;5052856;28;20245;-88
2021/10/14 01:37:33;;;;;;;5.60;4.63;;;5.10;96.60;;;;;;5061029;28;20205;-88
2021/10/14 01:40:00;;;;;;;7.20;4.87;;;5.00;96.80;;;;;;5060664;28;20271;-88
2021/10/14 01:42:30;;;;;;;6.77;5.00;;;5.00;96.80;;;;;;5068835;28;20197;-88
2021/10/14 01:44:59;;;;;;;5.97;4.10;;;4.90;96.70;;;;;;5053227;28;20225;-88
2021/10/14 01:47:26;;;;;;;7.17;4.50;;;4.90;96.80;;;;;;5061452;28;20205;-88
2021/10/14 01:49:53;;;;;;;8.63;5.10;;;4.90;96.70;;;;;;5061511;28;20228;-88
2021/10/14 01:52:20;;;;;;;6.40;4.97;;;4.80;96.80;;;;;;5054120;28;20212;-87
2021/10/14 01:54:48;;;;;;;6.57;4.90;;;4.70;97.10;;;;;;5058431;28;20233;-87
2021/10/14 01:57:15;;;;;;;5.87;4.60;;;4.70;97.20;;;;;;5060136;28;20197;-88
2021/10/14 01:59:42;;;;;;;4.47;3.97;;;4.80;97.10;;;;;;5050919;28;20711;-88
2021/10/14 02:02:09;;;;;;;6.77;4.67;;;4.80;96.90;;;;;;5051672;28;20194;-87
2021/10/14 02:04:36;;;;;;;5.33;4.57;;;4.80;96.90;;;;;;5053069;28;20241;-87
2021/10/14 02:07:03;;;;;;;7.30;5.33;;;4.70;97.00;;;;;;5062576;28;20204;-89
2021/10/14 02:09:31;;;;;;;5.53;4.77;;;4.60;97.20;;;;;;5062634;28;20229;-88
2021/10/14 02:11:59;;;;;;;6.13;4.87;;;4.70;97.40;;;;;;5065786;28;20228;-88
2021/10/14 02:14:26;;;;;;;5.83;4.83;;;4.60;97.20;;;;;;5064062;28;20510;-87
2021/10/14 02:16:53;;;;;;;6.77;4.87;;;4.70;97.40;;;;;;5068363;28;20197;-88
2021/10/14 02:19:20;;;;;;;6.07;5.03;;;4.70;97.40;;;;;;5064352;28;20224;-87
2021/10/14 02:21:47;;;;;;;5.50;4.90;;;4.70;97.60;;;;;;5068120;28;20198;-88
2021/10/14 02:24:14;;;;;;;8.27;5.33;;;4.80;97.70;;;;;;5079468;28;20224;-92
2021/10/14 02:26:41;;;;;;;9.20;5.33;;;4.80;97.60;;;;;;5069668;28;20590;-87
2021/10/14 02:29:12;;;;;;;5.53;4.97;;;4.80;97.70;;;;;;5075717;28;20304;-87
2021/10/14 02:31:40;;;;;;;6.93;4.97;;;4.80;97.70;;;;;;5061083;28;20573;-89
2021/10/14 02:34:07;;;;;;;6.93;5.33;;;4.80;97.90;;;;;;5069436;28;20362;-88
2021/10/14 02:36:35;;;;;;;6.10;4.90;;;5.00;97.70;;;;;;5078975;28;20205;-88
2021/10/14 02:39:02;;;;;;;6.30;5.10;;;5.00;97.40;;;;;;5067810;28;20228;-87
2021/10/14 02:41:29;;;;;;;6.40;5.37;;;5.00;97.20;;;;;;5074595;28;20211;-87
2021/10/14 02:43:56;;;;;;;6.93;5.23;;;5.10;97.20;;;;;;5066648;28;20220;-88
2021/10/14 02:46:24;;;;;;;7.53;5.43;;;5.10;97.10;;;;;;5063848;28;20203;-87
2021/10/14 02:48:51;;;;;;;7.57;5.53;;;5.10;97.20;;;;;;5063804;28;20580;-88
2021/10/14 02:51:18;;;;;;;7.00;5.27;;;5.10;97.20;;;;;;5057540;28;20202;-88
2021/10/14 02:53:45;;;;;;;5.90;5.30;;;5.20;97.30;;;;;;5067105;28;20237;-87
2021/10/14 02:56:12;;;;;;;6.70;5.60;;;5.20;97.50;;;;;;5068269;28;20197;-87
2021/10/14 02:58:39;;;;;;;8.07;5.67;;;5.30;97.30;;;;;;5067912;28;20235;-87
2021/10/14 03:01:06;;;;;;;6.83;5.13;;;5.30;97.10;;;;;;5061995;28;20204;-88
2021/10/14 03:03:35;;;;;;;8.67;5.63;;;5.30;97.40;;;;;;5063593;28;20225;-88
2021/10/14 03:06:01;;;;;;;7.97;5.57;;;5.40;97.00;;;;;;5065071;28;20223;-90
2021/10/14 03:08:28;;;;;;;7.33;5.67;;;5.40;96.80;;;;;;5060648;28;20567;-87
2021/10/14 03:10:56;;;;;;;8.67;5.90;;;5.50;96.70;;;;;;5071504;28;20208;-89
2021/10/14 03:13:23;;;;;;;6.97;5.73;;;5.60;96.50;;;;;;5067651;28;20221;-88
2021/10/14 03:15:50;;;;;;;7.20;5.30;;;5.50;96.60;;;;;;5069907;28;20220;-87
2021/10/14 03:18:16;;;;;;;7.70;5.97;;;5.50;96.70;;;;;;5071291;28;20206;-87
2021/10/14 03:20:45;;;;;;;7.23;5.97;;;5.60;96.60;;;;;;5062701;28;20201;-87
2021/10/14 03:23:12;;;;;;;6.90;5.73;;;5.60;96.50;;;;;;5065668;28;20207;-88
2021/10/14 03:25:40;;;;;;;9.30;6.03;;;5.60;96.40;;;;;;5083328;28;20311;-90
2021/10/14 03:28:07;;;;;;;9.20;6.40;;;5.60;96.40;;;;;;5064793;28;20198;-89
2021/10/14 03:30:34;;;;;;;7.17;5.80;;;5.60;96.30;;;;;;5060468;28;20225;-88
2021/10/14 03:33:01;;;;;;;7.27;5.70;;;5.70;96.40;;;;;;5072250;28;20233;-89
2021/10/14 03:35:31;;;;;;;10.77;6.33;;;5.70;96.20;;;;;;5079045;28;20241;-88
2021/10/14 03:38:00;;;;;;;7.00;5.60;;;5.70;96.20;;;;;;5066030;28;20248;-88
2021/10/14 03:40:28;;;;;;;8.60;5.73;;;5.70;96.30;;;;;;5078038;28;20226;-90
2021/10/14 03:42:55;;;;;;;6.00;5.23;;;5.80;96.50;;;;;;5062936;28;20201;-92
2021/10/14 03:45:22;;;;;;;7.30;5.67;;;5.90;96.20;;;;;;5066001;28;20217;-89
2021/10/14 03:47:49;;;;;;;7.13;5.90;;;5.90;95.90;;;;;;5082779;28;20658;-91
2021/10/14 03:50:16;;;;;;;7.47;5.73;;;5.90;95.80;;;;;;5071484;28;20216;-89
2021/10/14 03:52:43;;;;;;;7.17;5.87;;;5.90;95.90;;;;;;5068222;28;20707;-90
2021/10/14 03:55:12;;;;;;;8.23;6.43;;;5.90;96.00;;;;;;5070386;28;20225;-90
2021/10/14 03:57:39;;;;;;;11.50;6.23;;;6.00;95.80;;;;;;5076049;28;20570;-90
2021/10/14 04:00:07;;;;;;;9.40;6.43;;;6.00;95.80;;;;;;5070130;28;20223;-90
2021/10/14 04:02:34;;;;;;;9.10;6.20;;;5.90;95.70;;;;;;5078447;28;20686;-90
2021/10/14 04:05:01;;;;;;;8.67;6.40;;;5.90;95.70;;;;;;5069612;28;20220;-89
2021/10/14 04:07:28;;;;;;;7.93;6.17;;;6.00;95.50;;;;;;5080872;28;20193;-90
2021/10/14 04:09:55;;;;;;;12.00;6.90;;;6.00;95.50;;;;;;5067540;28;20663;-90
2021/10/14 04:12:24;;;;;;;9.07;6.80;;;5.90;95.70;;;;;;5072195;28;20217;-89
2021/10/14 04:14:50;;;;;;;7.70;6.67;;;6.00;95.60;;;;;;5081206;28;20230;-89
2021/10/14 04:17:18;;;;;;;9.80;7.00;;;5.90;96.10;;;;;;5064847;28;20280;-89
2021/10/14 04:19:45;;;;;;;9.13;7.23;;;5.90;96.40;;;;;;5069278;28;20221;-90
2021/10/14 04:22:12;;;;;;;9.33;7.33;;;5.90;96.50;;;;;;5064137;28;20197;-90
2021/10/14 04:24:39;;;;;;;9.40;7.33;;;5.80;96.50;;;;;;5064084;28;20234;-90
2021/10/14 04:27:07;;;;;;;9.53;6.93;;;5.70;96.50;;;;;;5069550;28;20198;-89
2021/10/14 04:29:35;;;;;;;9.80;7.20;;;5.80;96.80;;;;;;5075516;28;20254;-90
2021/10/14 04:32:07;;;;;;;9.53;7.63;;;5.70;96.60;;;;;;5072839;28;20212;-89
2021/10/14 04:34:36;;;;;;;8.63;7.13;;;5.70;96.70;;;;;;5082607;28;20604;-88
2021/10/14 04:37:05;;;;;;;8.93;7.33;;;5.70;96.80;;;;;;5083673;28;20196;-91
2021/10/14 04:39:32;;;;;;;9.87;7.43;;;5.70;96.90;;;;;;5073421;28;20259;-89
2021/10/14 04:41:59;;;;;;;7.93;6.47;;;5.80;96.70;;;;;;5070732;28;20198;-90
2021/10/14 04:44:26;;;;;;;10.57;7.23;;;5.90;96.20;;;;;;5062983;28;20233;-90
2021/10/14 04:46:55;;;;;;;8.93;6.80;;;5.90;95.90;;;;;;5072833;28;20236;-89
2021/10/14 04:49:22;;;;;;;9.93;7.43;;;5.90;95.80;;;;;;5057480;28;20226;-89
2021/10/14 04:51:49;;;;;;;9.93;6.80;;;5.90;95.80;;;;;;5058296;28;20202;-93
2021/10/14 04:54:16;;;;;;;8.27;6.97;;;5.90;95.70;;;;;;5057116;28;20221;-88
2021/10/14 04:56:43;;;;;;;11.33;6.93;;;6.00;95.60;;;;;;5062388;28;20209;-89
2021/10/14 04:59:10;;;;;;;9.20;7.43;;;6.00;95.40;;;;;;5066905;28;20591;-89
2021/10/14 05:01:37;;;;;;;8.90;6.67;;;6.00;95.70;;;;;;5066961;28;20212;-89
2021/10/14 05:04:05;;;;;;;9.77;7.33;;;6.00;95.70;;;;;;5067259;28;20224;-89
2021/10/14 05:06:32;;;;;;;10.10;8.07;;;6.10;95.50;;;;;;5056574;28;20236;-91
2021/10/14 05:08:59;;;;;;;9.57;7.63;;;6.10;95.30;;;;;;5064058;28;20217;-89
2021/10/14 05:11:27;;;;;;;8.43;7.17;;;6.00;95.60;;;;;;5070322;28;20201;-89
2021/10/14 05:13:54;;;;;;;11.60;7.57;;;6.10;96.00;;;;;;5070895;28;20217;-87
2021/10/14 05:16:21;;;;;;;8.60;7.30;;;6.10;95.90;;;;;;5061459;28;20210;-90
2021/10/14 05:18:48;;;;;;;9.07;7.00;;;6.10;95.80;;;;;;5056006;28;20225;-91
2021/10/14 05:21:21;;;;;;;8.57;7.03;;;6.20;95.70;;;;;;5076411;28;20205;-87
2021/10/14 05:23:48;;;;;;;10.63;7.53;;;6.20;95.40;;;;;;5060327;28;20226;-88
2021/10/14 05:26:15;;;;;;;11.03;7.30;;;6.30;95.30;;;;;;5078402;28;20312;-87
2021/10/14 05:28:42;;;;;;;9.87;7.30;;;6.30;94.90;;;;;;5075688;28;20228;-89
2021/10/14 05:31:09;;;;;;;8.43;6.67;;;6.30;94.80;;;;;;5068912;28;20207;-89
2021/10/14 05:33:37;;;;;;;9.53;7.07;;;6.30;95.10;;;;;;5064191;28;20637;-88
2021/10/14 05:36:04;;;;;;;9.90;6.97;;;6.30;95.00;;;;;;5061379;28;20194;-89
2021/10/14 05:38:32;;;;;;;8.37;7.00;;;6.20;95.30;;;;;;5063892;27;20732;-88
2021/10/14 05:40:59;;;;;;;9.90;7.13;;;6.20;95.30;;;;;;5086143;28;20204;-89
2021/10/14 05:43:26;;;;;;;9.67;7.53;;;6.20;95.30;;;;;;5062292;28;20198;-88
2021/10/14 05:45:53;;;;;;;9.17;7.63;;;6.30;95.40;;;;;;5069519;28;20227;-88
2021/10/14 05:48:20;;;;;;;11.03;7.73;;;6.40;95.00;;;;;;5071977;28;20212;-89
2021/10/14 05:50:47;;;;;;;9.63;7.87;;;6.50;94.60;;;;;;5069930;28;20560;-88
2021/10/14 05:53:14;;;;;;;9.47;7.23;;;6.50;94.50;;;;;;5059338;28;20210;-89
2021/10/14 05:55:43;;;;;;;12.07;8.00;;;6.60;94.60;;;;;;5062818;28;20595;-88
2021/10/14 05:58:10;;;;;;;8.80;7.17;;;6.60;94.50;;;;;;5061329;28;20280;-89
2021/10/14 06:00:37;;;;;;;11.67;8.00;;;6.60;94.40;;;;;;5061178;28;20229;-87
2021/10/14 06:03:04;;;;;;;12.53;8.10;;;6.60;94.60;;;;;;5063132;28;20567;-87
2021/10/14 06:05:31;;;;;;;12.40;7.57;;;6.70;94.70;;;;;;5073607;28;20601;-88
2021/10/14 06:07:59;;;;;;;9.27;7.33;;;6.80;94.50;;;;;;5075438;28;20552;-88
2021/10/14 06:10:26;;;;;;;10.73;7.67;;;6.90;94.30;;;;;;5062943;28;20225;-87
2021/10/14 06:12:55;;;;;;;9.90;7.37;;;7.00;94.40;;;;;;5065261;28;20228;-88
2021/10/14 06:15:22;;;;;;;14.33;7.40;;;7.00;94.20;;;;;;5072586;28;20222;-88
2021/10/14 06:17:49;;;;;;;8.87;6.97;;;7.00;93.70;;;;;;5070421;28;20211;-88
2021/10/14 06:20:16;;;;;;;9.23;7.27;;;7.00;93.80;;;;;;5072889;28;20253;-87
2021/10/14 06:22:43;;;;;;;8.13;6.90;;;7.10;93.70;;;;;;5065157;28;20579;-90
2021/10/14 06:25:11;;;;;;;8.50;7.13;;;7.10;93.60;;;;;;5070257;28;20235;-89
2021/10/14 06:27:39;;;;;;;9.20;6.97;;;7.00;93.50;;;;;;5092152;28;20249;-90
2021/10/14 06:40:29;;;;;;;10.13;6.80;;;7.40;93.20;;;;;;5099088;27;20199;-90
2021/10/14 06:43:13;;;;;;;8.20;6.73;;;7.50;92.90;;;;;;5079004;28;20189;-90
2021/10/14 06:45:43;;;;;;;7.75;6.95;;;7.60;92.50;;;;;;5080676;28;20227;-90
2021/10/14 06:48:10;;;;;;;9.05;7.25;;;7.70;92.40;;;;;;5077602;28;20197;-90
2021/10/14 06:50:37;;;;;;;7.35;6.53;;;7.80;91.90;;;;;;5079445;28;20229;-90
2021/10/14 06:53:13;;;;;;;8.90;6.85;;;7.80;91.80;;;;;;5081511;28;20204;-91
2021/10/14 06:55:42;;;;;;;8.07;6.75;;;7.70;91.90;;;;;;5084427;28;20250;-90
2021/10/14 06:58:13;;;;;;;7.20;6.05;;;7.70;92.20;;;;;;5060918;28;20230;-88
2021/10/14 07:00:40;;;;;;;8.82;6.82;;;7.80;92.00;;;;;;5080801;28;20227;-89
2021/10/14 07:03:08;;;;;;;7.28;6.38;;;7.90;91.90;;;;;;5088201;28;20201;-88
2021/10/14 07:05:35;;;;;;;8.07;6.45;;;8.00;91.80;;;;;;5073419;28;20252;-89
2021/10/14 07:08:13;;;;;;;7.65;6.75;;;8.10;91.30;;;;;;5073127;28;20263;-88
2021/10/14 07:10:45;;;;;;;9.32;7.35;;;8.20;91.10;;;;;;5081272;28;20224;-91
2021/10/14 07:13:13;;;;;;;10.82;6.63;;;8.10;91.10;;;;;;5071923;28;20711;-88
2021/10/14 07:15:40;;;;;;;8.38;6.97;;;8.20;91.00;;;;;;5076207;28;20713;-90
2021/10/14 07:18:07;;;;;;;10.32;6.85;;;8.40;90.30;;;;;;5067742;28;20198;-88
2021/10/14 07:20:34;;;;;;;10.82;6.90;;;8.30;90.40;;;;;;5084357;28;20236;-91
2021/10/14 07:23:07;;;;;;;9.07;6.93;;;8.50;90.20;;;;;;5075374;28;20197;-88
2021/10/14 07:25:34;;;;;;;7.38;6.57;;;8.60;89.40;;;;;;5068081;28;20229;-88
2021/10/14 07:28:03;;;;;;;8.07;6.93;;;8.70;88.20;;;;;;5067837;28;20202;-89
2021/10/14 07:30:30;;;;;;;9.18;6.68;;;8.80;87.80;;;;;;5077867;28;20362;-88
2021/10/14 07:33:03;;;;;;;8.57;6.55;;;8.90;87.90;;;;;;5075952;28;20217;-88
2021/10/14 07:35:31;;;;;;;8.65;6.32;;;8.70;87.40;;;;;;5059470;28;20312;-87
2021/10/14 07:37:58;;;;;;;9.77;6.78;;;8.90;88.50;;;;;;5063300;28;20196;-87
2021/10/14 07:41:24;;;;;;;8.95;6.25;;;9.00;88.30;;;;;;5045178;28;20240;-88
2021/10/14 07:43:53;;;;;;;7.22;6.28;;;9.30;86.30;;;;;;5069060;28;20648;-87
2021/10/14 07:46:21;;;;;;;9.55;6.35;;;9.40;85.60;;;;;;5067620;28;20256;-88
2021/10/14 07:52:57;;;;;;;8.13;6.55;;;9.50;82.70;;;;;;5065679;28;20182;-87
2021/10/14 07:55:25;;;;;;;9.13;6.20;;;9.60;83.10;;;;;;5074192;28;20645;-87
2021/10/14 07:57:52;;;;;;;6.95;5.78;;;9.60;82.80;;;;;;5067370;28;20258;-87
2021/10/14 08:10:42;;;;;;;5.43;4.88;;;9.90;80.40;;;;;;5069176;28;20313;-88
2021/10/14 08:13:15;;;;;;;5.55;4.50;;;10.00;76.20;;;;;;5084668;28;20676;-87
2021/10/14 08:15:44;;;;;;;5.47;4.43;;;10.30;73.30;;;;;;5082630;28;20297;-89
2021/10/14 08:18:17;;;;;;;4.45;4.03;;;10.50;73.60;;;;;;5072217;28;20198;-87
2021/10/14 08:20:44;;;;;;;4.75;3.70;;;10.70;73.40;;;;;;5079967;28;20247;-88
2021/10/14 08:23:13;;;;;;;6.47;3.78;;;10.50;71.80;;;;;;5067929;28;20624;-88
2021/10/14 08:28:54;;;;;;;6.43;3.92;;;11.00;66.60;;;;;;5050756;28;20298;-89
2021/10/14 08:31:36;;;;;;;3.75;3.42;;;11.30;62.00;;;;;;5045749;28;20647;-88
2021/10/14 08:34:03;;;;;;;4.82;3.40;;;11.30;58.40;;;;;;5073721;28;20554;-89
2021/10/14 08:36:31;;;;;;;5.00;3.28;;;11.20;60.50;;;;;;5067696;28;20288;-89
2021/10/14 08:39:23;;;;;;;4.18;3.50;;;11.10;64.60;;;;;;5067100;28;20226;-88
2021/10/14 08:45:16;;;;;;;3.63;3.15;;;11.20;59.00;;;;;;5066305;28;20225;-89
2021/10/14 08:48:14;;;;;;;6.93;3.40;;;11.20;62.40;;;;;;5069646;28;20210;-89
2021/10/14 08:50:44;;;;;;;3.38;3.08;;;11.00;60.30;;;;;;5079928;28;20578;-89
2021/10/14 08:53:11;;;;;;;3.55;2.80;;;11.00;62.60;;;;;;5095875;28;20201;-89
2021/10/14 08:55:39;;;;;;;3.00;2.70;;;10.90;61.50;;;;;;5113471;27;20264;-88
2021/10/14 08:58:09;;;;;;;4.55;2.97;;;11.10;57.90;;;;;;5083860;28;20209;-88
2021/10/14 09:00:42;;;;;;;2.83;2.50;;;11.00;61.20;;;;;;5094299;28;20279;-88
2021/10/14 09:06:55;;;;;;;3.58;2.72;;;11.10;57.40;;;;;;5065743;28;20237;-88
2021/10/14 09:30:45;;;;;;;2.60;2.10;;;12.00;48.60;;;;;;5318209;22;20232;-89
2021/10/14 09:33:46;;;;;;;2.42;2.20;;;12.30;48.90;;;;;;5066104;28;20200;-90
2021/10/14 09:36:16;;;;;;;2.75;2.38;;;12.60;49.20;;;;;;5065943;28;20210;-89
2021/10/14 09:38:47;;;;;;;5.75;2.40;;;12.60;49.10;;;;;;5067266;28;20281;-88
2021/10/14 09:41:16;;;;;;;2.90;2.30;;;12.50;49.00;;;;;;5035793;28;20205;-89
2021/10/14 09:43:44;;;;;;;5.28;2.10;;;12.40;49.00;;;;;;5031869;28;20225;-91
2021/10/14 09:46:33;;;;;;;3.65;2.60;;;12.60;49.10;;;;;;5041516;28;20225;-89
2021/10/14 09:49:01;;;;;;;3.95;2.53;;;12.80;49.30;;;;;;5045890;28;20226;-91
2021/10/14 09:51:28;;;;;;;2.83;2.22;;;13.10;46.80;;;;;;5049569;28;20205;-90
2021/10/14 09:53:56;;;;;;;3.67;2.20;;;13.30;45.00;;;;;;5035713;28;20230;-90
2021/10/14 09:56:24;;;;;;;3.88;2.20;;;13.30;45.20;;;;;;5031931;28;20202;-90
2021/10/14 09:58:51;;;;;;;3.33;2.30;;;13.20;45.60;;;;;;5046564;28;20226;-90
2021/10/14 10:01:20;;;;;;;2.33;1.83;;;13.20;44.60;;;;;;5048828;28;20267;-89
2021/10/14 10:03:48;;;;;;;3.47;1.85;;;13.00;45.20;;;;;;5052094;28;20225;-90
2021/10/14 10:06:16;;;;;;;5.07;2.45;;;12.80;43.40;;;;;;5052981;28;20221;-89
2021/10/14 10:08:45;;;;;;;2.65;1.80;;;12.50;41.90;;;;;;5070530;28;20225;-89
2021/10/14 10:11:16;;;;;;;5.35;2.08;;;12.30;43.20;;;;;;5060571;28;20197;-89
2021/10/14 10:13:48;;;;;;;4.93;2.00;;;12.30;44.60;;;;;;5029507;28;20313;-89
2021/10/14 10:16:17;;;;;;;3.55;2.40;;;12.50;43.00;;;;;;5038615;28;20216;-89
2021/10/14 10:18:49;;;;;;;4.82;2.40;;;12.50;44.30;;;;;;5038990;28;20223;-88
2021/10/14 10:21:42;;;;;;;3.53;2.38;;;12.70;44.70;;;;;;5028766;28;20206;-89
2021/10/14 10:24:34;;;;;;;5.63;2.13;;;12.80;45.30;;;;;;5042785;28;20234;-89
2021/10/14 10:27:09;;;;;;;4.45;2.10;;;12.80;43.90;;;;;;5023625;28;20238;-89
2021/10/14 10:29:53;;;;;;;2.95;2.38;;;12.60;43.00;;;;;;5046862;28;20292;-89
2021/10/14 10:32:22;;;;;;;2.85;2.20;;;12.70;44.50;;;;;;5032292;28;20202;-90
2021/10/14 10:35:04;;;;;;;3.92;2.35;;;12.70;43.60;;;;;;5025335;28;20238;-89
2021/10/14 10:37:36;;;;;;;3.65;2.60;;;12.60;44.40;;;;;;5013958;28;20611;-88
2021/10/14 10:40:32;;;;;;;2.38;2.17;;;12.60;42.00;;;;;;5048302;28;20222;-89
2021/10/14 10:43:08;;;;;;;5.00;2.58;;;12.60;41.70;;;;;;5003428;28;20210;-89
2021/10/14 10:45:50;;;;;;;4.82;2.60;;;12.60;43.00;;;;;;5024660;28;20230;-89
2021/10/14 10:48:21;;;;;;;3.45;2.38;;;12.90;41.00;;;;;;5031480;28;20674;-89
2021/10/14 10:50:56;;;;;;;3.15;2.65;;;12.90;41.80;;;;;;5018258;28;20198;-90
2021/10/14 10:53:44;;;;;;;3.13;2.60;;;13.20;43.20;;;;;;5035617;28;20277;-90
2021/10/14 10:56:28;;;;;;;3.80;2.65;;;12.90;40.90;;;;;;5034571;28;20277;-90
2021/10/14 10:58:56;;;;;;;3.72;2.63;;;13.00;41.40;;;;;;5031628;28;20707;-91
2021/10/14 11:01:23;;;;;;;3.95;2.30;;;13.30;42.90;;;;;;5032232;28;20202;-90
2021/10/14 11:03:57;;;;;;;3.60;2.45;;;13.70;40.00;;;;;;5042830;28;20222;-91
2021/10/14 11:06:26;;;;;;;2.45;2.25;;;13.80;39.90;;;;;;5001779;28;20221;-90
2021/10/14 11:08:54;;;;;;;3.00;2.60;;;13.60;38.00;;;;;;5033413;28;20701;-91
2021/10/14 11:11:23;;;;;;;5.43;2.50;;;13.60;40.00;;;;;;5014709;28;20545;-91
2021/10/14 11:13:52;;;;;;;6.95;3.03;;;13.70;38.30;;;;;;5038919;28;20291;-91
2021/10/14 11:16:21;;;;;;;3.72;2.40;;;13.80;38.80;;;;;;5038701;28;20199;-90
2021/10/14 11:18:49;;;;;;;4.68;2.40;;;13.80;39.30;;;;;;5039315;28;20229;-91
2021/10/14 11:21:19;;;;;;;4.03;2.63;;;14.10;39.70;;;;;;5037857;28;20199;-90
2021/10/14 11:23:49;;;;;;;5.25;2.50;;;14.30;39.20;;;;;;5040535;28;20573;-91
2021/10/14 11:26:29;;;;;;;3.17;2.50;;;14.20;37.80;;;;;;5044221;28;20194;-89
2021/10/14 11:29:00;;;;;;;3.00;2.20;;;14.20;35.50;;;;;;5044118;28;20237;-89
2021/10/14 11:31:35;;;;;;;4.55;2.63;;;14.00;36.40;;;;;;5047520;28;20268;-89
2021/10/14 11:34:11;;;;;;;4.80;2.70;;;14.10;37.00;;;;;;5032340;28;20220;-90
2021/10/14 11:36:41;;;;;;;2.70;2.47;;;14.20;38.70;;;;;;5050070;28;20211;-89
2021/10/14 11:39:11;;;;;;;4.22;2.78;;;14.10;39.40;;;;;;5041373;28;20218;-89
2021/10/14 11:41:40;;;;;;;4.05;2.90;;;14.10;38.90;;;;;;5045326;28;20205;-89
2021/10/14 11:44:08;;;;;;;2.97;2.47;;;13.90;38.00;;;;;;5040493;28;20225;-90
2021/10/14 11:46:37;;;;;;;5.88;2.90;;;13.60;38.20;;;;;;5031032;28;20207;-90
2021/10/14 11:49:06;;;;;;;4.68;2.83;;;13.70;41.00;;;;;;5034195;28;20246;-89
2021/10/14 11:51:33;;;;;;;5.85;2.70;;;13.70;40.20;;;;;;5030984;28;20195;-93
2021/10/14 11:54:07;;;;;;;3.55;2.60;;;13.70;38.30;;;;;;5030873;28;20229;-89
2021/10/14 11:56:42;;;;;;;3.33;2.70;;;13.90;38.50;;;;;;5032774;28;20210;-91
2021/10/14 11:59:09;;;;;;;3.92;2.40;;;13.90;40.30;;;;;;5037282;28;20222;-91
2021/10/14 12:01:45;;;;;;;3.05;2.08;;;14.10;37.80;;;;;;5038813;28;20203;-90
2021/10/14 12:04:14;;;;;;;2.95;2.40;;;14.50;36.10;;;;;;5037580;28;20230;-89
2021/10/14 12:06:43;;;;;;;5.05;2.30;;;14.50;35.00;;;;;;5039879;28;20210;-89
2021/10/14 12:09:10;;;;;;;2.60;2.20;;;14.70;33.50;;;;;;5037598;28;20241;-91
2021/10/14 12:11:39;;;;;;;2.88;1.90;;;14.50;34.80;;;;;;5034996;28;20206;-90
2021/10/14 12:14:06;;;;;;;3.20;2.03;;;14.60;35.40;;;;;;5036166;28;20222;-89
2021/10/14 12:16:34;;;;;;;3.70;2.13;;;14.60;35.80;;;;;;5039013;28;20286;-89
2021/10/14 12:19:19;;;;;;;2.47;2.20;;;14.50;35.80;;;;;;5037995;28;20238;-90
2021/10/14 12:21:47;;;;;;;3.00;2.13;;;14.30;35.60;;;;;;5038236;28;20664;-89
2021/10/14 12:24:18;;;;;;;3.78;2.00;;;14.60;35.00;;;;;;5027807;28;20321;-88
2021/10/14 12:26:48;;;;;;;3.30;2.05;;;14.90;34.60;;;;;;5044240;28;20252;-89
2021/10/14 12:29:30;;;;;;;3.55;1.92;;;14.90;33.80;;;;;;5039415;28;20244;-90
2021/10/14 12:32:10;;;;;;;2.40;1.90;;;14.80;33.00;;;;;;5033264;28;20209;-89
2021/10/14 12:34:52;;;;;;;2.20;1.88;;;14.70;33.80;;;;;;5037597;28;20299;-89
2021/10/14 12:37:24;;;;;;;4.70;2.10;;;14.50;33.50;;;;;;5012684;28;20199;-90
2021/10/14 12:40:10;;;;;;;5.00;2.30;;;14.20;35.10;;;;;;5031800;28;21314;-88
2021/10/14 12:42:51;;;;;;;3.13;2.10;;;14.40;34.00;;;;;;5027795;28;20190;-90
2021/10/14 12:45:29;;;;;;;4.20;2.30;;;14.10;35.50;;;;;;5031886;28;20682;-90
2021/10/14 12:48:15;;;;;;;3.08;2.25;;;13.90;34.80;;;;;;5032823;28;20205;-90
2021/10/14 12:53:43;;;;;;;3.92;2.30;;;13.70;36.00;;;;;;5022366;28;20210;-89
2021/10/14 12:56:11;;;;;;;4.28;2.20;;;13.60;35.90;;;;;;5029112;28;20662;-87
2021/10/14 12:59:06;;;;;;;2.78;2.50;;;13.50;37.10;;;;;;5038500;28;20236;-89
2021/10/14 13:01:34;;;;;;;3.00;2.08;;;13.40;36.70;;;;;;5039584;28;20293;-88
2021/10/14 13:04:01;;;;;;;3.95;2.05;;;13.40;37.30;;;;;;5045768;28;20226;-89
2021/10/14 13:06:29;;;;;;;2.25;1.80;;;13.50;36.70;;;;;;5038449;28;20625;-90
2021/10/14 13:08:57;;;;;;;3.10;2.10;;;13.50;38.70;;;;;;5039969;28;20320;-89
2021/10/14 13:11:30;;;;;;;3.38;2.15;;;13.60;38.20;;;;;;5000676;28;20196;-88
2021/10/14 13:16:35;;;;;;;2.42;1.95;;;13.70;36.20;;;;;;5055448;28;20567;-91
2021/10/14 13:19:03;;;;;;;4.05;1.92;;;13.70;35.60;;;;;;5057678;28;20243;-89
2021/10/14 13:22:02;;;;;;;1.98;1.80;;;13.70;35.40;;;;;;5059791;28;20203;-88
2021/10/14 13:24:29;;;;;;;2.42;2.05;;;13.50;33.80;;;;;;5066087;28;20227;-89
2021/10/14 13:26:59;;;;;;;2.80;1.88;;;13.70;34.10;;;;;;5048933;28;20218;-88
2021/10/14 13:29:26;;;;;;;3.00;2.15;;;13.60;34.20;;;;;;5056476;28;20230;-88
2021/10/14 13:31:55;;;;;;;1.77;1.67;;;13.60;34.70;;;;;;5046003;28;20253;-88
2021/10/14 13:34:28;;;;;;;2.28;1.45;;;13.70;34.90;;;;;;5055812;28;20285;-89
2021/10/14 13:40:17;;;;;;;2.00;1.90;;;13.50;33.40;;;;;;5063937;28;20348;-88
2021/10/14 13:42:49;;;;;;;2.72;1.95;;;13.40;33.90;;;;;;5067445;28;20209;-88
2021/10/14 13:45:17;;;;;;;2.78;1.85;;;13.50;34.10;;;;;;5066484;28;20201;-88
2021/10/14 13:48:30;;;;;;;2.72;2.10;;;13.40;34.40;;;;;;5066407;28;20221;-88
2021/10/14 13:51:00;;;;;;;2.22;1.60;;;13.50;33.50;;;;;;5064494;28;20222;-88
2021/10/14 13:53:28;;;;;;;2.47;1.90;;;13.30;34.90;;;;;;5065669;28;20197;-88
2021/10/14 16:10:25;;;;;;;4.32;2.22;;;12.10;48.70;;;;;;5026589;28;20226;-88
2021/10/14 16:25:51;;;;;;;2.88;2.30;;;11.90;57.10;;;;;;5730032;22;20241;-89
2021/10/14 16:28:18;;;;;;;3.72;2.15;;;11.90;55.60;;;;;;5046095;28;20297;-88
2021/10/14 16:35:06;;;;;;;2.33;2.13;;;11.70;56.30;;;;;;5058424;28;20229;-87
2021/10/14 16:38:19;;;;;;;2.50;2.22;;;11.60;56.10;;;;;;5067226;28;20217;-89
2021/10/14 16:44:20;;;;;;;3.42;2.28;;;11.20;60.70;;;;;;5070945;28;20229;-87
2021/10/14 16:50:12;;;;;;;3.10;2.30;;;11.20;63.60;;;;;;5064185;28;20206;-88
2021/10/14 16:53:08;;;;;;;3.50;2.17;;;11.00;66.10;;;;;;5065625;28;20273;-88